sensor_id;sensor_type;location;lat;lon;timestamp;pressure;altitude;pressure_sealevel;temperature;humidity
68376;BME280;55318;52.068;5.188;2023-04-21T00:00:12;101656.0;;;10.08;88.42
68376;BME280;55318;52.068;5.188;2023-04-21T00:01:48;101653.0;;;9.96;89.07
68376;BME280;55318;52.068;5.188;2023-04-21T00:05:01;101656.0;;;10.08;89.04
68376;BME280;55318;52.068;5.188;2023-04-21T00:06:37;101660.0;;;9.94;90.11
68376;BME280;55318;52.068;5.188;2023-04-21T00:08:14;101660.0;;;9.91;90.75
68376;BME280;55318;52.068;5.188;2023-04-21T00:09:50;101662.0;;;9.89;90.73
68376;BME280;55318;52.068;5.188;2023-04-21T00:13:03;101656.0;;;9.88;90.59
68376;BME280;55318;52.068;5.188;2023-04-21T00:14:39;101640.0;;;9.96;90.37
68376;BME280;55318;52.068;5.188;2023-04-21T00:16:15;101622.0;;;9.98;91.17
68376;BME280;55318;52.068;5.188;2023-04-21T00:19:27;101616.0;;;10.06;91.07
68376;BME280;55318;52.068;5.188;2023-04-21T00:21:04;101618.0;;;9.97;92.22
68376;BME280;55318;52.068;5.188;2023-04-21T00:22:39;101618.0;;;10.01;91.29
68376;BME280;55318;52.068;5.188;2023-04-21T00:25:52;101622.0;;;10.0;91.53
68376;BME280;55318;52.068;5.188;2023-04-21T00:27:28;101625.0;;;9.75;93.12
68376;BME280;55318;52.068;5.188;2023-04-21T00:29:04;101620.0;;;9.81;93.22
68376;BME280;55318;52.068;5.188;2023-04-21T00:30:40;101620.0;;;9.73;93.42
68376;BME280;55318;52.068;5.188;2023-04-21T00:33:52;101610.0;;;9.77;93.72
68376;BME280;55318;52.068;5.188;2023-04-21T00:35:28;101609.0;;;9.76;94.52
68376;BME280;55318;52.068;5.188;2023-04-21T00:37:05;101603.0;;;9.98;92.94
68376;BME280;55318;52.068;5.188;2023-04-21T00:40:17;101606.0;;;10.01;92.71
68376;BME280;55318;52.068;5.188;2023-04-21T00:41:53;101596.0;;;9.89;93.02
68376;BME280;55318;52.068;5.188;2023-04-21T00:43:29;101588.0;;;9.73;94.69
68376;BME280;55318;52.068;5.188;2023-04-21T00:46:42;101590.0;;;9.83;94.04
68376;BME280;55318;52.068;5.188;2023-04-21T00:48:18;101592.0;;;9.76;94.35
68376;BME280;55318;52.068;5.188;2023-04-21T00:49:56;101600.0;;;9.75;94.52
68376;BME280;55318;52.068;5.188;2023-04-21T00:53:11;101596.0;;;9.66;94.87
68376;BME280;55318;52.068;5.188;2023-04-21T00:54:49;101593.0;;;9.68;95.24
68376;BME280;55318;52.068;5.188;2023-04-21T00:56:26;101585.0;;;9.76;95.06
68376;BME280;55318;52.068;5.188;2023-04-21T00:58:05;101570.0;;;9.68;95.65
68376;BME280;55318;52.068;5.188;2023-04-21T01:01:18;101578.0;;;9.73;94.68
68376;BME280;55318;52.068;5.188;2023-04-21T01:02:54;101583.0;;;9.64;95.43
68376;BME280;55318;52.068;5.188;2023-04-21T01:04:31;101587.0;;;9.71;95.28
68376;BME280;55318;52.068;5.188;2023-04-21T01:07:44;101585.0;;;9.75;94.96
68376;BME280;55318;52.068;5.188;2023-04-21T01:09:21;101581.0;;;9.73;95.09
68376;BME280;55318;52.068;5.188;2023-04-21T01:10:57;101573.0;;;9.71;94.85
68376;BME280;55318;52.068;5.188;2023-04-21T01:12:41;101576.0;;;9.77;94.9
68376;BME280;55318;52.068;5.188;2023-04-21T01:15:53;101577.0;;;9.56;96.21
68376;BME280;55318;52.068;5.188;2023-04-21T01:17:29;101573.0;;;9.59;96.26
68376;BME280;55318;52.068;5.188;2023-04-21T01:19:05;101574.0;;;9.69;96.23
68376;BME280;55318;52.068;5.188;2023-04-21T01:22:17;101573.0;;;9.68;96.01
68376;BME280;55318;52.068;5.188;2023-04-21T01:23:53;101572.0;;;9.73;95.74
68376;BME280;55318;52.068;5.188;2023-04-21T01:25:30;101565.0;;;9.73;95.96
68376;BME280;55318;52.068;5.188;2023-04-21T01:28:45;101568.0;;;9.63;96.46
68376;BME280;55318;52.068;5.188;2023-04-21T01:30:21;101564.0;;;9.64;96.23
68376;BME280;55318;52.068;5.188;2023-04-21T01:31:57;101562.0;;;9.52;97.07
68376;BME280;55318;52.068;5.188;2023-04-21T01:33:33;101557.0;;;9.48;97.28
68376;BME280;55318;52.068;5.188;2023-04-21T01:36:45;101550.0;;;9.61;97.45
68376;BME280;55318;52.068;5.188;2023-04-21T01:38:22;101553.0;;;9.72;96.56
68376;BME280;55318;52.068;5.188;2023-04-21T01:40:02;101555.0;;;9.57;97.38
68376;BME280;55318;52.068;5.188;2023-04-21T01:43:18;101558.0;;;9.73;96.95
68376;BME280;55318;52.068;5.188;2023-04-21T01:44:55;101555.0;;;9.53;97.54
68376;BME280;55318;52.068;5.188;2023-04-21T01:46:32;101543.0;;;9.58;97.55
68376;BME280;55318;52.068;5.188;2023-04-21T01:48:08;101542.0;;;9.67;97.21
68376;BME280;55318;52.068;5.188;2023-04-21T01:51:21;101544.0;;;9.68;97.66
68376;BME280;55318;52.068;5.188;2023-04-21T01:52:57;101539.0;;;9.63;97.66
68376;BME280;55318;52.068;5.188;2023-04-21T01:54:34;101535.0;;;9.65;97.25
68376;BME280;55318;52.068;5.188;2023-04-21T01:57:48;101535.0;;;9.53;98.45
68376;BME280;55318;52.068;5.188;2023-04-21T01:59:25;101534.0;;;9.64;97.61
68376;BME280;55318;52.068;5.188;2023-04-21T02:01:01;101530.0;;;9.67;97.7
68376;BME280;55318;52.068;5.188;2023-04-21T02:04:14;101534.0;;;9.63;97.97
68376;BME280;55318;52.068;5.188;2023-04-21T02:05:51;101531.0;;;9.82;96.98
68376;BME280;55318;52.068;5.188;2023-04-21T02:07:27;101532.0;;;9.72;97.6
68376;BME280;55318;52.068;5.188;2023-04-21T02:09:03;101532.0;;;9.6;98.41
68376;BME280;55318;52.068;5.188;2023-04-21T02:12:15;101537.0;;;9.64;98.77
68376;BME280;55318;52.068;5.188;2023-04-21T02:13:52;101532.0;;;9.72;98.76
68376;BME280;55318;52.068;5.188;2023-04-21T02:15:29;101541.0;;;9.77;98.19
68376;BME280;55318;52.068;5.188;2023-04-21T02:18:41;101534.0;;;9.57;98.85
68376;BME280;55318;52.068;5.188;2023-04-21T02:20:17;101535.0;;;9.72;98.55
68376;BME280;55318;52.068;5.188;2023-04-21T02:21:53;101536.0;;;9.71;98.35
68376;BME280;55318;52.068;5.188;2023-04-21T02:25:06;101538.0;;;9.57;98.94
68376;BME280;55318;52.068;5.188;2023-04-21T02:26:41;101534.0;;;9.55;99.43
68376;BME280;55318;52.068;5.188;2023-04-21T02:28:17;101523.0;;;9.52;100.0
68376;BME280;55318;52.068;5.188;2023-04-21T02:31:30;101528.0;;;9.48;100.0
68376;BME280;55318;52.068;5.188;2023-04-21T02:33:06;101528.0;;;9.49;100.0
68376;BME280;55318;52.068;5.188;2023-04-21T02:34:42;101523.0;;;9.52;100.0
68376;BME280;55318;52.068;5.188;2023-04-21T02:36:18;101522.0;;;9.43;100.0
68376;BME280;55318;52.068;5.188;2023-04-21T02:39:30;101521.0;;;9.56;100.0
68376;BME280;55318;52.068;5.188;2023-04-21T02:41:07;101506.0;;;9.72;99.83
68376;BME280;55318;52.068;5.188;2023-04-21T02:42:43;101505.0;;;9.74;99.41
68376;BME280;55318;52.068;5.188;2023-04-21T02:45:55;101516.0;;;9.61;99.99
68376;BME280;55318;52.068;5.188;2023-04-21T02:47:32;101510.0;;;9.64;99.66
68376;BME280;55318;52.068;5.188;2023-04-21T02:49:09;101510.0;;;9.64;100.0
68376;BME280;55318;52.068;5.188;2023-04-21T02:52:22;101516.0;;;9.59;100.0
68376;BME280;55318;52.068;5.188;2023-04-21T02:53:58;101508.0;;;9.64;100.0
68376;BME280;55318;52.068;5.188;2023-04-21T02:55:34;101500.0;;;9.6;100.0
68376;BME280;55318;52.068;5.188;2023-04-21T02:57:10;101497.0;;;9.65;100.0
68376;BME280;55318;52.068;5.188;2023-04-21T03:00:22;101508.0;;;9.6;100.0
68376;BME280;55318;52.068;5.188;2023-04-21T03:01:58;101505.0;;;9.59;100.0
68376;BME280;55318;52.068;5.188;2023-04-21T03:03:34;101507.0;;;9.56;100.0
68376;BME280;55318;52.068;5.188;2023-04-21T03:06:47;101509.0;;;9.48;100.0
68376;BME280;55318;52.068;5.188;2023-04-21T03:08:23;101498.0;;;9.57;100.0
68376;BME280;55318;52.068;5.188;2023-04-21T03:10:00;101500.0;;;9.52;100.0
68376;BME280;55318;52.068;5.188;2023-04-21T03:13:12;101496.0;;;9.61;100.0
68376;BME280;55318;52.068;5.188;2023-04-21T03:14:48;101512.0;;;9.58;100.0
68376;BME280;55318;52.068;5.188;2023-04-21T03:16:25;101514.0;;;9.59;100.0
68376;BME280;55318;52.068;5.188;2023-04-21T03:19:37;101500.0;;;9.64;100.0
68376;BME280;55318;52.068;5.188;2023-04-21T03:21:13;101510.0;;;9.6;100.0
68376;BME280;55318;52.068;5.188;2023-04-21T03:22:52;101510.0;;;9.56;100.0
68376;BME280;55318;52.068;5.188;2023-04-21T03:24:28;101512.0;;;9.66;100.0
68376;BME280;55318;52.068;5.188;2023-04-21T03:27:42;101494.0;;;9.68;100.0
68376;BME280;55318;52.068;5.188;2023-04-21T03:29:19;101495.0;;;9.76;100.0
68376;BME280;55318;52.068;5.188;2023-04-21T03:30:55;101497.0;;;9.64;100.0
68376;BME280;55318;52.068;5.188;2023-04-21T03:34:07;101487.0;;;9.64;100.0
68376;BME280;55318;52.068;5.188;2023-04-21T03:35:43;101491.0;;;9.56;100.0
68376;BME280;55318;52.068;5.188;2023-04-21T03:37:19;101481.0;;;9.71;100.0
68376;BME280;55318;52.068;5.188;2023-04-21T03:40:31;101480.0;;;9.73;100.0
68376;BME280;55318;52.068;5.188;2023-04-21T03:42:08;101483.0;;;9.88;100.0
68376;BME280;55318;52.068;5.188;2023-04-21T03:43:43;101476.0;;;9.86;99.78
68376;BME280;55318;52.068;5.188;2023-04-21T03:45:19;101475.0;;;9.77;99.88
68376;BME280;55318;52.068;5.188;2023-04-21T03:48:31;101470.0;;;9.63;100.0
68376;BME280;55318;52.068;5.188;2023-04-21T03:50:08;101467.0;;;9.67;100.0
68376;BME280;55318;52.068;5.188;2023-04-21T03:51:43;101465.0;;;9.71;100.0
68376;BME280;55318;52.068;5.188;2023-04-21T03:54:56;101466.0;;;9.85;100.0
68376;BME280;55318;52.068;5.188;2023-04-21T03:56:32;101466.0;;;9.63;100.0
68376;BME280;55318;52.068;5.188;2023-04-21T03:58:08;101458.0;;;9.64;100.0
68376;BME280;55318;52.068;5.188;2023-04-21T04:01:20;101462.0;;;9.66;100.0
68376;BME280;55318;52.068;5.188;2023-04-21T04:02:56;101457.0;;;9.57;100.0
68376;BME280;55318;52.068;5.188;2023-04-21T04:04:33;101462.0;;;9.56;100.0
68376;BME280;55318;52.068;5.188;2023-04-21T04:06:09;101468.0;;;9.64;100.0
68376;BME280;55318;52.068;5.188;2023-04-21T04:09:20;101463.0;;;9.68;100.0
68376;BME280;55318;52.068;5.188;2023-04-21T04:10:56;101468.0;;;9.88;100.0
68376;BME280;55318;52.068;5.188;2023-04-21T04:12:32;101455.0;;;9.69;100.0
68376;BME280;55318;52.068;5.188;2023-04-21T04:15:44;101466.0;;;9.82;100.0
68376;BME280;55318;52.068;5.188;2023-04-21T04:17:21;101456.0;;;9.85;100.0
68376;BME280;55318;52.068;5.188;2023-04-21T04:18:57;101455.0;;;9.77;100.0
68376;BME280;55318;52.068;5.188;2023-04-21T04:22:09;101459.0;;;9.78;100.0
68376;BME280;55318;52.068;5.188;2023-04-21T04:23:45;101464.0;;;9.81;100.0
68376;BME280;55318;52.068;5.188;2023-04-21T04:25:22;101459.0;;;9.82;100.0
68376;BME280;55318;52.068;5.188;2023-04-21T04:28:34;101452.0;;;9.81;100.0
68376;BME280;55318;52.068;5.188;2023-04-21T04:30:11;101455.0;;;9.86;100.0
68376;BME280;55318;52.068;5.188;2023-04-21T04:31:48;101447.0;;;9.92;100.0
68376;BME280;55318;52.068;5.188;2023-04-21T04:33:24;101448.0;;;9.88;100.0
68376;BME280;55318;52.068;5.188;2023-04-21T04:36:36;101455.0;;;9.9;100.0
68376;BME280;55318;52.068;5.188;2023-04-21T04:38:12;101447.0;;;9.99;99.96
68376;BME280;55318;52.068;5.188;2023-04-21T04:39:51;101460.0;;;9.89;100.0
68376;BME280;55318;52.068;5.188;2023-04-21T04:43:05;101458.0;;;9.74;100.0
68376;BME280;55318;52.068;5.188;2023-04-21T04:44:41;101464.0;;;9.81;100.0
68376;BME280;55318;52.068;5.188;2023-04-21T04:46:17;101464.0;;;9.77;100.0
68376;BME280;55318;52.068;5.188;2023-04-21T04:49:29;101458.0;;;9.81;100.0
68376;BME280;55318;52.068;5.188;2023-04-21T04:51:05;101460.0;;;9.76;100.0
68376;BME280;55318;52.068;5.188;2023-04-21T04:52:41;101460.0;;;9.75;100.0
68376;BME280;55318;52.068;5.188;2023-04-21T04:54:18;101460.0;;;9.82;100.0
68376;BME280;55318;52.068;5.188;2023-04-21T04:57:30;101459.0;;;9.8;100.0
68376;BME280;55318;52.068;5.188;2023-04-21T04:59:06;101463.0;;;9.93;100.0
68376;BME280;55318;52.068;5.188;2023-04-21T05:00:42;101463.0;;;9.86;100.0
68376;BME280;55318;52.068;5.188;2023-04-21T05:03:54;101466.0;;;9.89;100.0
68376;BME280;55318;52.068;5.188;2023-04-21T05:05:31;101463.0;;;9.89;100.0
68376;BME280;55318;52.068;5.188;2023-04-21T05:07:08;101460.0;;;9.86;100.0
68376;BME280;55318;52.068;5.188;2023-04-21T05:10:20;101456.0;;;9.88;100.0
68376;BME280;55318;52.068;5.188;2023-04-21T05:11:56;101460.0;;;9.85;100.0
68376;BME280;55318;52.068;5.188;2023-04-21T05:13:32;101471.0;;;9.82;100.0
68376;BME280;55318;52.068;5.188;2023-04-21T05:16:44;101470.0;;;9.88;100.0
68376;BME280;55318;52.068;5.188;2023-04-21T05:18:22;101475.0;;;9.86;100.0
68376;BME280;55318;52.068;5.188;2023-04-21T05:19:58;101472.0;;;9.81;100.0
68376;BME280;55318;52.068;5.188;2023-04-21T05:21:34;101471.0;;;9.88;100.0
68376;BME280;55318;52.068;5.188;2023-04-21T05:24:46;101465.0;;;9.98;100.0
68376;BME280;55318;52.068;5.188;2023-04-21T05:26:23;101473.0;;;9.91;100.0
68376;BME280;55318;52.068;5.188;2023-04-21T05:27:59;101470.0;;;9.93;100.0
68376;BME280;55318;52.068;5.188;2023-04-21T05:31:11;101474.0;;;9.94;100.0
68376;BME280;55318;52.068;5.188;2023-04-21T05:32:47;101476.0;;;10.0;100.0
68376;BME280;55318;52.068;5.188;2023-04-21T05:34:23;101477.0;;;9.89;100.0
68376;BME280;55318;52.068;5.188;2023-04-21T05:37:35;101480.0;;;9.97;100.0
68376;BME280;55318;52.068;5.188;2023-04-21T05:39:11;101487.0;;;9.89;100.0
68376;BME280;55318;52.068;5.188;2023-04-21T05:40:52;101482.0;;;9.83;100.0
68376;BME280;55318;52.068;5.188;2023-04-21T05:42:28;101487.0;;;9.89;100.0
68376;BME280;55318;52.068;5.188;2023-04-21T05:45:41;101482.0;;;9.92;100.0
68376;BME280;55318;52.068;5.188;2023-04-21T05:47:17;101481.0;;;10.03;100.0
68376;BME280;55318;52.068;5.188;2023-04-21T05:48:53;101487.0;;;9.96;100.0
68376;BME280;55318;52.068;5.188;2023-04-21T05:52:07;101488.0;;;9.88;100.0
68376;BME280;55318;52.068;5.188;2023-04-21T05:53:44;101485.0;;;9.89;100.0
68376;BME280;55318;52.068;5.188;2023-04-21T05:55:21;101493.0;;;9.81;100.0
68376;BME280;55318;52.068;5.188;2023-04-21T05:58:33;101499.0;;;9.93;100.0
68376;BME280;55318;52.068;5.188;2023-04-21T06:00:10;101494.0;;;10.05;100.0
68376;BME280;55318;52.068;5.188;2023-04-21T06:01:46;101503.0;;;10.1;100.0
68376;BME280;55318;52.068;5.188;2023-04-21T06:03:22;101497.0;;;10.11;100.0
68376;BME280;55318;52.068;5.188;2023-04-21T06:06:35;101494.0;;;10.16;100.0
68376;BME280;55318;52.068;5.188;2023-04-21T06:08:11;101498.0;;;10.06;100.0
68376;BME280;55318;52.068;5.188;2023-04-21T06:09:48;101501.0;;;10.07;100.0
68376;BME280;55318;52.068;5.188;2023-04-21T06:13:01;101499.0;;;10.14;100.0
68376;BME280;55318;52.068;5.188;2023-04-21T06:14:37;101501.0;;;10.14;100.0
68376;BME280;55318;52.068;5.188;2023-04-21T06:16:13;101495.0;;;10.19;100.0
68376;BME280;55318;52.068;5.188;2023-04-21T06:19:27;101493.0;;;10.18;100.0
68376;BME280;55318;52.068;5.188;2023-04-21T06:21:04;101495.0;;;10.3;100.0
68376;BME280;55318;52.068;5.188;2023-04-21T06:22:40;101487.0;;;10.35;100.0
68376;BME280;55318;52.068;5.188;2023-04-21T06:24:16;101493.0;;;10.49;100.0
68376;BME280;55318;52.068;5.188;2023-04-21T06:27:38;101485.0;;;10.51;100.0
68376;BME280;55318;52.068;5.188;2023-04-21T06:29:14;101483.0;;;10.54;100.0
68376;BME280;55318;52.068;5.188;2023-04-21T06:30:50;101488.0;;;10.64;100.0
68376;BME280;55318;52.068;5.188;2023-04-21T06:34:03;101493.0;;;10.73;100.0
68376;BME280;55318;52.068;5.188;2023-04-21T06:35:39;101492.0;;;10.79;100.0
68376;BME280;55318;52.068;5.188;2023-04-21T06:37:15;101489.0;;;10.77;100.0
68376;BME280;55318;52.068;5.188;2023-04-21T06:40:27;101488.0;;;10.68;100.0
68376;BME280;55318;52.068;5.188;2023-04-21T06:42:04;101484.0;;;10.8;100.0
68376;BME280;55318;52.068;5.188;2023-04-21T06:43:40;101490.0;;;10.75;100.0
68376;BME280;55318;52.068;5.188;2023-04-21T06:45:16;101491.0;;;10.82;100.0
68376;BME280;55318;52.068;5.188;2023-04-21T06:48:29;101487.0;;;10.99;100.0
68376;BME280;55318;52.068;5.188;2023-04-21T06:50:06;101489.0;;;10.91;100.0
68376;BME280;55318;52.068;5.188;2023-04-21T06:51:42;101492.0;;;11.06;100.0
68376;BME280;55318;52.068;5.188;2023-04-21T06:54:54;101484.0;;;11.29;100.0
68376;BME280;55318;52.068;5.188;2023-04-21T06:56:30;101478.0;;;11.33;100.0
68376;BME280;55318;52.068;5.188;2023-04-21T06:58:06;101486.0;;;11.44;99.64
68376;BME280;55318;52.068;5.188;2023-04-21T07:01:19;101480.0;;;11.56;99.02
68376;BME280;55318;52.068;5.188;2023-04-21T07:02:55;101476.0;;;11.6;97.41
68376;BME280;55318;52.068;5.188;2023-04-21T07:04:31;101478.0;;;11.5;97.99
68376;BME280;55318;52.068;5.188;2023-04-21T07:06:07;101482.0;;;11.69;97.77
68376;BME280;55318;52.068;5.188;2023-04-21T07:09:19;101476.0;;;11.66;97.52
68376;BME280;55318;52.068;5.188;2023-04-21T07:10:55;101476.0;;;11.73;97.45
68376;BME280;55318;52.068;5.188;2023-04-21T07:12:32;101476.0;;;11.87;97.37
68376;BME280;55318;52.068;5.188;2023-04-21T07:15:44;101475.0;;;11.95;96.27
68376;BME280;55318;52.068;5.188;2023-04-21T07:17:20;101471.0;;;11.95;95.82
68376;BME280;55318;52.068;5.188;2023-04-21T07:18:56;101474.0;;;11.96;94.99
68376;BME280;55318;52.068;5.188;2023-04-21T07:22:08;101480.0;;;12.01;96.0
68376;BME280;55318;52.068;5.188;2023-04-21T07:23:44;101469.0;;;12.04;95.38
68376;BME280;55318;52.068;5.188;2023-04-21T07:25:21;101473.0;;;12.36;95.95
68376;BME280;55318;52.068;5.188;2023-04-21T07:28:33;101475.0;;;12.45;94.32
68376;BME280;55318;52.068;5.188;2023-04-21T07:30:10;101480.0;;;12.4;93.37
68376;BME280;55318;52.068;5.188;2023-04-21T07:31:46;101483.0;;;12.3;93.38
68376;BME280;55318;52.068;5.188;2023-04-21T07:33:22;101480.0;;;12.46;92.68
68376;BME280;55318;52.068;5.188;2023-04-21T07:36:35;101480.0;;;12.57;91.68
68376;BME280;55318;52.068;5.188;2023-04-21T07:38:11;101481.0;;;12.6;91.56
68376;BME280;55318;52.068;5.188;2023-04-21T07:39:47;101476.0;;;13.0;93.57
68376;BME280;55318;52.068;5.188;2023-04-21T07:42:59;101482.0;;;13.34;91.4
68376;BME280;55318;52.068;5.188;2023-04-21T07:44:35;101485.0;;;13.35;88.77
68376;BME280;55318;52.068;5.188;2023-04-21T07:46:11;101486.0;;;13.28;85.25
68376;BME280;55318;52.068;5.188;2023-04-21T07:49:24;101485.0;;;13.27;85.76
68376;BME280;55318;52.068;5.188;2023-04-21T07:51:01;101487.0;;;13.18;86.53
68376;BME280;55318;52.068;5.188;2023-04-21T07:54:13;101490.0;;;13.3;86.17
68376;BME280;55318;52.068;5.188;2023-04-21T07:57:25;101482.0;;;13.56;85.97
68376;BME280;55318;52.068;5.188;2023-04-21T07:59:01;101480.0;;;13.4;84.94
68376;BME280;55318;52.068;5.188;2023-04-21T08:00:40;101477.0;;;13.6;85.65
68376;BME280;55318;52.068;5.188;2023-04-21T08:03:56;101476.0;;;13.62;84.45
68376;BME280;55318;52.068;5.188;2023-04-21T08:05:34;101478.0;;;13.66;84.8
68376;BME280;55318;52.068;5.188;2023-04-21T08:07:12;101480.0;;;13.51;84.67
68376;BME280;55318;52.068;5.188;2023-04-21T08:10:26;101478.0;;;13.42;84.84
68376;BME280;55318;52.068;5.188;2023-04-21T08:12:04;101476.0;;;13.58;83.68
68376;BME280;55318;52.068;5.188;2023-04-21T08:13:42;101475.0;;;13.47;82.55
68376;BME280;55318;52.068;5.188;2023-04-21T08:15:20;101470.0;;;13.55;83.45
68376;BME280;55318;52.068;5.188;2023-04-21T08:18:34;101468.0;;;13.6;82.46
68376;BME280;55318;52.068;5.188;2023-04-21T08:20:12;101464.0;;;13.64;82.66
68376;BME280;55318;52.068;5.188;2023-04-21T08:21:49;101461.0;;;13.53;82.05
68376;BME280;55318;52.068;5.188;2023-04-21T08:25:04;101465.0;;;13.49;82.39
68376;BME280;55318;52.068;5.188;2023-04-21T08:26:42;101467.0;;;13.77;82.5
68376;BME280;55318;52.068;5.188;2023-04-21T08:28:18;101470.0;;;13.86;82.64
68376;BME280;55318;52.068;5.188;2023-04-21T08:29:56;101473.0;;;13.82;80.3
68376;BME280;55318;52.068;5.188;2023-04-21T08:33:10;101469.0;;;13.88;81.06
68376;BME280;55318;52.068;5.188;2023-04-21T08:34:49;101464.0;;;13.93;80.86
68376;BME280;55318;52.068;5.188;2023-04-21T08:36:26;101471.0;;;14.06;79.48
68376;BME280;55318;52.068;5.188;2023-04-21T08:39:42;101473.0;;;14.03;79.89
68376;BME280;55318;52.068;5.188;2023-04-21T08:41:20;101474.0;;;14.16;80.27
68376;BME280;55318;52.068;5.188;2023-04-21T08:42:58;101478.0;;;14.16;78.66
68376;BME280;55318;52.068;5.188;2023-04-21T08:44:37;101473.0;;;14.15;78.58
68376;BME280;55318;52.068;5.188;2023-04-21T08:47:51;101475.0;;;14.29;78.08
68376;BME280;55318;52.068;5.188;2023-04-21T08:49:32;101473.0;;;14.07;77.58
68376;BME280;55318;52.068;5.188;2023-04-21T08:51:09;101468.0;;;14.13;78.47
68376;BME280;55318;52.068;5.188;2023-04-21T08:52:46;101470.0;;;14.27;79.0
68376;BME280;55318;52.068;5.188;2023-04-21T08:56:02;101472.0;;;14.21;78.86
68376;BME280;55318;52.068;5.188;2023-04-21T08:57:40;101469.0;;;14.27;78.69
68376;BME280;55318;52.068;5.188;2023-04-21T08:59:18;101464.0;;;14.29;78.66
68376;BME280;55318;52.068;5.188;2023-04-21T09:02:36;101460.0;;;14.5;79.23
68376;BME280;55318;52.068;5.188;2023-04-21T09:04:28;101459.0;;;14.38;78.47
68376;BME280;55318;52.068;5.188;2023-04-21T09:06:08;101451.0;;;14.37;77.92
68376;BME280;55318;52.068;5.188;2023-04-21T09:07:46;101456.0;;;14.53;78.97
68376;BME280;55318;52.068;5.188;2023-04-21T09:11:03;101460.0;;;14.71;78.11
68376;BME280;55318;52.068;5.188;2023-04-21T09:12:39;101455.0;;;14.79;76.52
68376;BME280;55318;52.068;5.188;2023-04-21T09:14:18;101460.0;;;14.78;76.97
68376;BME280;55318;52.068;5.188;2023-04-21T09:15:55;101460.0;;;14.82;78.47
68376;BME280;55318;52.068;5.188;2023-04-21T09:19:13;101455.0;;;14.96;78.19
68376;BME280;55318;52.068;5.188;2023-04-21T09:21:03;101451.0;;;15.08;77.59
68376;BME280;55318;52.068;5.188;2023-04-21T09:22:43;101452.0;;;15.2;76.11
68376;BME280;55318;52.068;5.188;2023-04-21T09:24:21;101455.0;;;15.11;75.81
68376;BME280;55318;52.068;5.188;2023-04-21T09:27:40;101457.0;;;15.19;76.22
68376;BME280;55318;52.068;5.188;2023-04-21T09:29:21;101455.0;;;15.08;76.48
68376;BME280;55318;52.068;5.188;2023-04-21T09:30:57;101453.0;;;15.11;75.24
68376;BME280;55318;52.068;5.188;2023-04-21T09:32:36;101460.0;;;15.09;75.58
68376;BME280;55318;52.068;5.188;2023-04-21T09:35:55;101456.0;;;15.05;76.19
68376;BME280;55318;52.068;5.188;2023-04-21T09:37:32;101452.0;;;15.16;74.94
68376;BME280;55318;52.068;5.188;2023-04-21T09:39:09;101449.0;;;15.12;74.16
68376;BME280;55318;52.068;5.188;2023-04-21T09:42:33;101450.0;;;15.1;75.19
68376;BME280;55318;52.068;5.188;2023-04-21T09:44:11;101457.0;;;15.03;74.11
68376;BME280;55318;52.068;5.188;2023-04-21T09:45:48;101455.0;;;15.11;73.77
68376;BME280;55318;52.068;5.188;2023-04-21T09:47:28;101448.0;;;14.93;73.63
68376;BME280;55318;52.068;5.188;2023-04-21T09:50:46;101450.0;;;15.1;74.41
68376;BME280;55318;52.068;5.188;2023-04-21T09:52:26;101447.0;;;15.06;74.61
68376;BME280;55318;52.068;5.188;2023-04-21T09:54:11;101439.0;;;14.82;75.17
68376;BME280;55318;52.068;5.188;2023-04-21T09:55:56;101436.0;;;14.9;75.08
68376;BME280;55318;52.068;5.188;2023-04-21T09:59:18;101440.0;;;15.03;75.02
68376;BME280;55318;52.068;5.188;2023-04-21T10:01:02;101439.0;;;14.99;75.17
68376;BME280;55318;52.068;5.188;2023-04-21T10:02:43;101442.0;;;15.07;74.39
68376;BME280;55318;52.068;5.188;2023-04-21T10:04:21;101440.0;;;15.11;72.69
68376;BME280;55318;52.068;5.188;2023-04-21T10:06:01;101435.0;;;15.15;72.94
68376;BME280;55318;52.068;5.188;2023-04-21T10:09:20;101431.0;;;15.25;72.77
68376;BME280;55318;52.068;5.188;2023-04-21T10:10:58;101439.0;;;15.22;72.83
68376;BME280;55318;52.068;5.188;2023-04-21T10:12:37;101442.0;;;15.09;73.45
68376;BME280;55318;52.068;5.188;2023-04-21T10:16:00;101434.0;;;15.28;72.61
68376;BME280;55318;52.068;5.188;2023-04-21T10:17:38;101442.0;;;15.27;72.19
68376;BME280;55318;52.068;5.188;2023-04-21T10:19:22;101446.0;;;15.12;74.24
68376;BME280;55318;52.068;5.188;2023-04-21T10:21:05;101440.0;;;14.93;75.08
68376;BME280;55318;52.068;5.188;2023-04-21T10:22:56;101438.0;;;14.74;76.27
68376;BME280;55318;52.068;5.188;2023-04-21T10:26:18;101442.0;;;15.0;76.5
68376;BME280;55318;52.068;5.188;2023-04-21T10:27:57;101437.0;;;14.97;75.55
68376;BME280;55318;52.068;5.188;2023-04-21T10:29:36;101434.0;;;14.93;75.75
68376;BME280;55318;52.068;5.188;2023-04-21T10:31:21;101428.0;;;14.87;75.77
68376;BME280;55318;52.068;5.188;2023-04-21T10:34:40;101430.0;;;14.9;75.47
68376;BME280;55318;52.068;5.188;2023-04-21T10:36:23;101428.0;;;14.88;74.3
68376;BME280;55318;52.068;5.188;2023-04-21T10:38:01;101423.0;;;14.85;74.69
68376;BME280;55318;52.068;5.188;2023-04-21T10:39:43;101419.0;;;14.87;74.16
68376;BME280;55318;52.068;5.188;2023-04-21T10:41:35;101427.0;;;14.78;73.87
68376;BME280;55318;52.068;5.188;2023-04-21T10:45:24;101419.0;;;14.76;73.83
68376;BME280;55318;52.068;5.188;2023-04-21T10:47:06;101410.0;;;14.78;73.55
68376;BME280;55318;52.068;5.188;2023-04-21T10:48:51;101413.0;;;15.07;73.63
68376;BME280;55318;52.068;5.188;2023-04-21T10:50:30;101406.0;;;15.19;73.02
68376;BME280;55318;52.068;5.188;2023-04-21T10:52:08;101413.0;;;15.34;72.36
68376;BME280;55318;52.068;5.188;2023-04-21T10:55:26;101408.0;;;15.56;71.92
68376;BME280;55318;52.068;5.188;2023-04-21T10:57:05;101407.0;;;15.47;70.83
68376;BME280;55318;52.068;5.188;2023-04-21T10:58:44;101403.0;;;15.47;69.87
68376;BME280;55318;52.068;5.188;2023-04-21T11:00:24;101400.0;;;15.58;72.12
68376;BME280;55318;52.068;5.188;2023-04-21T11:03:40;101395.0;;;15.69;72.05
68376;BME280;55318;52.068;5.188;2023-04-21T11:05:17;101390.0;;;15.71;71.55
68376;BME280;55318;52.068;5.188;2023-04-21T11:07:04;101384.0;;;15.9;71.36
68376;BME280;55318;52.068;5.188;2023-04-21T11:10:53;101384.0;;;16.07;73.16
68376;BME280;55318;52.068;5.188;2023-04-21T11:12:33;101382.0;;;16.07;71.12